sensor_id;sensor_type;location;lat;lon;timestamp;pressure;altitude;pressure_sealevel;temperature;humidity
12182;BME280;6154;51.550;12.138;2023-08-24T00:01:41;100777.44;;;21.91;58.60
12182;BME280;6154;51.550;12.138;2023-08-24T00:04:11;100773.38;;;21.87;58.50
12182;BME280;6154;51.550;12.138;2023-08-24T00:06:39;100777.91;;;21.87;58.67
12182;BME280;6154;51.550;12.138;2023-08-24T00:09:07;100782.59;;;21.85;58.88
12182;BME280;6154;51.550;12.138;2023-08-24T00:11:35;100778.50;;;21.80;59.39
12182;BME280;6154;51.550;12.138;2023-08-24T00:14:04;100774.41;;;21.76;59.90
12182;BME280;6154;51.550;12.138;2023-08-24T00:16:32;100776.53;;;21.73;60.29
12182;BME280;6154;51.550;12.138;2023-08-24T00:19:00;100775.97;;;21.69;60.62
12182;BME280;6154;51.550;12.138;2023-08-24T00:21:29;100764.34;;;21.69;60.07
12182;BME280;6154;51.550;12.138;2023-08-24T00:23:57;100767.25;;;21.58;59.97
12182;BME280;6154;51.550;12.138;2023-08-24T00:26:26;100766.22;;;21.68;59.56
12182;BME280;6154;51.550;12.138;2023-08-24T00:28:54;100758.97;;;21.69;59.43
12182;BME280;6154;51.550;12.138;2023-08-24T00:31:22;100764.41;;;21.59;60.23
12182;BME280;6154;51.550;12.138;2023-08-24T00:33:51;100763.25;;;21.62;60.34
12182;BME280;6154;51.550;12.138;2023-08-24T00:36:19;100763.69;;;21.57;60.73
12182;BME280;6154;51.550;12.138;2023-08-24T00:38:49;100773.91;;;21.53;61.36
12182;BME280;6154;51.550;12.138;2023-08-24T00:41:20;100757.88;;;21.52;61.50
12182;BME280;6154;51.550;12.138;2023-08-24T00:43:51;100763.28;;;21.52;61.50
12182;BME280;6154;51.550;12.138;2023-08-24T00:46:19;100763.56;;;21.49;61.94
12182;BME280;6154;51.550;12.138;2023-08-24T00:48:48;100765.56;;;21.47;61.65
12182;BME280;6154;51.550;12.138;2023-08-24T00:51:18;100758.50;;;21.46;61.09
12182;BME280;6154;51.550;12.138;2023-08-24T00:53:47;100762.72;;;21.48;60.86
12182;BME280;6154;51.550;12.138;2023-08-24T00:56:17;100759.03;;;21.49;60.80
12182;BME280;6154;51.550;12.138;2023-08-24T00:58:47;100764.28;;;21.51;60.80
12182;BME280;6154;51.550;12.138;2023-08-24T01:01:16;100759.59;;;21.53;60.01
12182;BME280;6154;51.550;12.138;2023-08-24T01:03:45;100756.88;;;21.53;60.64
12182;BME280;6154;51.550;12.138;2023-08-24T01:06:13;100765.97;;;21.52;60.57
12182;BME280;6154;51.550;12.138;2023-08-24T01:08:41;100762.44;;;21.51;60.55
12182;BME280;6154;51.550;12.138;2023-08-24T01:11:15;100762.44;;;21.51;60.81
12182;BME280;6154;51.550;12.138;2023-08-24T01:13:52;100763.56;;;21.49;61.39
12182;BME280;6154;51.550;12.138;2023-08-24T01:16:27;100763.56;;;21.49;61.48
12182;BME280;6154;51.550;12.138;2023-08-24T01:18:57;100758.19;;;21.49;60.45
12182;BME280;6154;51.550;12.138;2023-08-24T01:21:28;100758.19;;;21.49;60.04
12182;BME280;6154;51.550;12.138;2023-08-24T01:24:04;100763.72;;;21.47;60.72
12182;BME280;6154;51.550;12.138;2023-08-24T01:26:39;100762.72;;;21.48;61.73
12182;BME280;6154;51.550;12.138;2023-08-24T01:29:09;100766.16;;;21.41;61.56
12182;BME280;6154;51.550;12.138;2023-08-24T01:31:37;100756.69;;;21.37;60.38
12182;BME280;6154;51.550;12.138;2023-08-24T01:34:05;100763.06;;;21.36;60.53
12182;BME280;6154;51.550;12.138;2023-08-24T01:36:34;100760.62;;;21.33;60.96
12182;BME280;6154;51.550;12.138;2023-08-24T01:39:07;100768.16;;;21.29;60.87
12182;BME280;6154;51.550;12.138;2023-08-24T01:41:41;100761.63;;;21.32;60.26
12182;BME280;6154;51.550;12.138;2023-08-24T01:44:13;100763.31;;;21.33;61.06
12182;BME280;6154;51.550;12.138;2023-08-24T01:46:43;100772.41;;;21.32;61.60
12182;BME280;6154;51.550;12.138;2023-08-24T01:49:13;100769.72;;;21.32;61.81
12182;BME280;6154;51.550;12.138;2023-08-24T01:51:43;100768.72;;;21.33;61.36
12182;BME280;6154;51.550;12.138;2023-08-24T01:54:11;100767.00;;;21.32;61.95
12182;BME280;6154;51.550;12.138;2023-08-24T01:56:41;100768.00;;;21.31;62.56
12182;BME280;6154;51.550;12.138;2023-08-24T01:59:09;100763.47;;;21.31;61.93
12182;BME280;6154;51.550;12.138;2023-08-24T02:01:37;100758.25;;;21.30;62.15
12182;BME280;6154;51.550;12.138;2023-08-24T02:04:05;100756.53;;;21.29;61.91
12182;BME280;6154;51.550;12.138;2023-08-24T02:06:33;100757.53;;;21.28;62.76
12182;BME280;6154;51.550;12.138;2023-08-24T02:09:01;100757.81;;;21.24;63.06
12182;BME280;6154;51.550;12.138;2023-08-24T02:11:30;100762.75;;;21.19;63.58
12182;BME280;6154;51.550;12.138;2023-08-24T02:13:59;100757.94;;;21.13;63.63
12182;BME280;6154;51.550;12.138;2023-08-24T02:16:27;100755.56;;;21.10;63.83
12182;BME280;6154;51.550;12.138;2023-08-24T02:18:55;100753.31;;;21.06;64.04
12182;BME280;6154;51.550;12.138;2023-08-24T02:21:23;100748.91;;;21.05;63.95
12182;BME280;6154;51.550;12.138;2023-08-24T02:23:51;100741.69;;;21.05;63.35
12182;BME280;6154;51.550;12.138;2023-08-24T02:26:20;100742.41;;;21.07;63.06
12182;BME280;6154;51.550;12.138;2023-08-24T02:28:48;100741.25;;;21.10;62.89
12182;BME280;6154;51.550;12.138;2023-08-24T02:31:17;100737.84;;;21.08;63.80
12182;BME280;6154;51.550;12.138;2023-08-24T02:33:46;100738.84;;;21.07;63.81
12182;BME280;6154;51.550;12.138;2023-08-24T02:36:16;100737.28;;;21.04;63.68
12182;BME280;6154;51.550;12.138;2023-08-24T02:38:44;100739.97;;;21.04;63.27
12182;BME280;6154;51.550;12.138;2023-08-24T02:41:13;100741.81;;;21.04;63.65
12182;BME280;6154;51.550;12.138;2023-08-24T02:43:41;100741.81;;;21.04;63.67
12182;BME280;6154;51.550;12.138;2023-08-24T02:46:13;100738.84;;;21.07;63.17
12182;BME280;6154;51.550;12.138;2023-08-24T02:48:42;100740.56;;;21.08;63.71
12182;BME280;6154;51.550;12.138;2023-08-24T02:51:10;100737.84;;;21.08;63.09
12182;BME280;6154;51.550;12.138;2023-08-24T02:53:39;100744.94;;;21.09;62.99
12182;BME280;6154;51.550;12.138;2023-08-24T02:56:07;100738.72;;;21.08;62.62
12182;BME280;6154;51.550;12.138;2023-08-24T02:58:35;100737.84;;;21.08;62.96
12182;BME280;6154;51.550;12.138;2023-08-24T03:01:04;100735.47;;;21.05;63.21
12182;BME280;6154;51.550;12.138;2023-08-24T03:03:34;100739.28;;;21.02;63.11
12182;BME280;6154;51.550;12.138;2023-08-24T03:06:05;100737.56;;;21.01;63.16
12182;BME280;6154;51.550;12.138;2023-08-24T03:08:36;100735.87;;;21.00;64.11
12182;BME280;6154;51.550;12.138;2023-08-24T03:11:05;100735.47;;;20.95;63.82
12182;BME280;6154;51.550;12.138;2023-08-24T03:13:36;100737.75;;;20.80;65.48
12182;BME280;6154;51.550;12.138;2023-08-24T03:16:05;100742.13;;;20.72;65.56
12182;BME280;6154;51.550;12.138;2023-08-24T03:18:35;100741.44;;;20.70;64.28
12182;BME280;6154;51.550;12.138;2023-08-24T03:21:04;100735.34;;;20.67;64.18
12182;BME280;6154;51.550;12.138;2023-08-24T03:23:33;100729.28;;;20.65;63.83
12182;BME280;6154;51.550;12.138;2023-08-24T03:26:01;100739.28;;;20.63;63.42
12182;BME280;6154;51.550;12.138;2023-08-24T03:28:30;100735.06;;;20.61;62.95
12182;BME280;6154;51.550;12.138;2023-08-24T03:30:58;100736.19;;;20.58;63.75
12182;BME280;6154;51.550;12.138;2023-08-24T03:33:27;100730.38;;;20.53;63.59
12182;BME280;6154;51.550;12.138;2023-08-24T03:35:56;100734.50;;;20.48;63.57
12182;BME280;6154;51.550;12.138;2023-08-24T03:38:25;100730.25;;;20.45;63.78
12182;BME280;6154;51.550;12.138;2023-08-24T03:40:59;100734.16;;;20.41;64.12
12182;BME280;6154;51.550;12.138;2023-08-24T03:43:28;100730.06;;;20.37;64.63
12182;BME280;6154;51.550;12.138;2023-08-24T03:45:56;100721.56;;;20.32;64.97
12182;BME280;6154;51.550;12.138;2023-08-24T03:48:25;100713.78;;;20.29;64.35
12182;BME280;6154;51.550;12.138;2023-08-24T03:50:54;100714.50;;;20.41;64.02
12182;BME280;6154;51.550;12.138;2023-08-24T03:53:23;100714.13;;;20.55;62.55
12182;BME280;6154;51.550;12.138;2023-08-24T03:55:54;100718.03;;;20.31;63.81
12182;BME280;6154;51.550;12.138;2023-08-24T03:58:22;100721.84;;;20.29;63.32
12182;BME280;6154;51.550;12.138;2023-08-24T04:00:51;100722.28;;;20.24;62.55
12182;BME280;6154;51.550;12.138;2023-08-24T04:03:21;100728.22;;;20.28;63.16
12182;BME280;6154;51.550;12.138;2023-08-24T04:05:49;100721.41;;;20.24;63.43
12182;BME280;6154;51.550;12.138;2023-08-24T04:08:18;100727.06;;;20.21;63.92
12182;BME280;6154;51.550;12.138;2023-08-24T04:10:48;100725.37;;;20.20;63.73
12182;BME280;6154;51.550;12.138;2023-08-24T04:13:18;100723.66;;;20.19;63.40
12182;BME280;6154;51.550;12.138;2023-08-24T04:15:46;100722.53;;;20.21;63.51
12182;BME280;6154;51.550;12.138;2023-08-24T04:18:14;100720.56;;;20.23;64.12
12182;BME280;6154;51.550;12.138;2023-08-24T04:20:42;100719.16;;;20.19;63.81
12182;BME280;6154;51.550;12.138;2023-08-24T04:23:12;100720.44;;;20.15;63.88
12182;BME280;6154;51.550;12.138;2023-08-24T04:25:41;100718.69;;;20.14;63.94
12182;BME280;6154;51.550;12.138;2023-08-24T04:28:10;100722.13;;;20.16;63.15
12182;BME280;6154;51.550;12.138;2023-08-24T04:30:39;100714.91;;;20.17;63.52
12182;BME280;6154;51.550;12.138;2023-08-24T04:33:07;100728.91;;;20.20;63.41
12182;BME280;6154;51.550;12.138;2023-08-24T04:35:35;100729.47;;;20.24;63.10
12182;BME280;6154;51.550;12.138;2023-08-24T04:38:04;100730.19;;;20.26;63.26
12182;BME280;6154;51.550;12.138;2023-08-24T04:40:48;100740.81;;;20.27;63.79
12182;BME280;6154;51.550;12.138;2023-08-24T04:43:17;100734.16;;;20.31;64.55
12182;BME280;6154;51.550;12.138;2023-08-24T04:45:48;100723.25;;;20.33;64.10
12182;BME280;6154;51.550;12.138;2023-08-24T04:48:16;100728.22;;;20.37;63.89
12182;BME280;6154;51.550;12.138;2023-08-24T04:50:45;100735.00;;;20.42;62.65
12182;BME280;6154;51.550;12.138;2023-08-24T04:53:15;100732.66;;;20.48;62.91
12182;BME280;6154;51.550;12.138;2023-08-24T04:55:44;100736.50;;;20.55;62.50
12182;BME280;6154;51.550;12.138;2023-08-24T04:58:13;100737.03;;;20.59;63.35
12182;BME280;6154;51.550;12.138;2023-08-24T05:00:41;100733.91;;;20.63;63.33
12182;BME280;6154;51.550;12.138;2023-08-24T05:03:13;100731.66;;;20.69;62.89
12182;BME280;6154;51.550;12.138;2023-08-24T05:05:41;100738.44;;;20.73;63.46
12182;BME280;6154;51.550;12.138;2023-08-24T05:08:09;100729.13;;;20.77;63.94
12182;BME280;6154;51.550;12.138;2023-08-24T05:10:39;100735.50;;;20.85;63.56
12182;BME280;6154;51.550;12.138;2023-08-24T05:13:08;100732.34;;;20.90;63.04
12182;BME280;6154;51.550;12.138;2023-08-24T05:15:36;100733.75;;;20.94;63.09
12182;BME280;6154;51.550;12.138;2023-08-24T05:18:04;100729.81;;;20.98;63.25
12182;BME280;6154;51.550;12.138;2023-08-24T05:20:34;100732.78;;;21.05;62.43
12182;BME280;6154;51.550;12.138;2023-08-24T05:23:02;100735.03;;;21.09;62.37
12182;BME280;6154;51.550;12.138;2023-08-24T05:25:30;100737.00;;;21.17;61.50
12182;BME280;6154;51.550;12.138;2023-08-24T05:28:00;100734.53;;;21.23;62.19
12182;BME280;6154;51.550;12.138;2023-08-24T05:30:30;100732.72;;;21.34;61.37
12182;BME280;6154;51.550;12.138;2023-08-24T05:32:58;100734.38;;;21.44;62.34
12182;BME280;6154;51.550;12.138;2023-08-24T05:35:26;100741.56;;;21.53;63.10
12182;BME280;6154;51.550;12.138;2023-08-24T05:37:56;100738.84;;;21.63;62.68
12182;BME280;6154;51.550;12.138;2023-08-24T05:40:24;100736.25;;;21.71;62.34
12182;BME280;6154;51.550;12.138;2023-08-24T05:42:52;100745.47;;;21.78;62.23
12182;BME280;6154;51.550;12.138;2023-08-24T05:45:20;100744.56;;;21.88;62.67
12182;BME280;6154;51.550;12.138;2023-08-24T05:47:52;100741.97;;;21.96;62.10
12182;BME280;6154;51.550;12.138;2023-08-24T05:50:21;100739.22;;;22.05;62.93
12182;BME280;6154;51.550;12.138;2023-08-24T05:52:49;100727.56;;;22.15;62.03
12182;BME280;6154;51.550;12.138;2023-08-24T05:55:18;100730.16;;;22.24;62.55
12182;BME280;6154;51.550;12.138;2023-08-24T05:57:47;100729.25;;;22.33;62.96
12182;BME280;6154;51.550;12.138;2023-08-24T06:00:16;100727.66;;;22.41;63.07
12182;BME280;6154;51.550;12.138;2023-08-24T06:02:44;100722.34;;;22.49;62.76
12182;BME280;6154;51.550;12.138;2023-08-24T06:05:12;100734.91;;;22.58;62.93
12182;BME280;6154;51.550;12.138;2023-08-24T06:07:40;100739.16;;;22.60;63.05
12182;BME280;6154;51.550;12.138;2023-08-24T06:10:09;100732.06;;;22.77;63.14
12182;BME280;6154;51.550;12.138;2023-08-24T06:12:39;100728.44;;;22.86;63.16
12182;BME280;6154;51.550;12.138;2023-08-24T06:15:07;100726.66;;;22.95;62.66
12182;BME280;6154;51.550;12.138;2023-08-24T06:17:38;100732.81;;;23.05;62.50
12182;BME280;6154;51.550;12.138;2023-08-24T06:20:07;100726.44;;;23.14;61.99
12182;BME280;6154;51.550;12.138;2023-08-24T06:22:37;100732.75;;;23.23;62.43
12182;BME280;6154;51.550;12.138;2023-08-24T06:25:06;100734.50;;;23.32;62.44
12182;BME280;6154;51.550;12.138;2023-08-24T06:27:35;100736.09;;;23.43;61.78
12182;BME280;6154;51.550;12.138;2023-08-24T06:30:06;100728.53;;;23.55;62.19
12182;BME280;6154;51.550;12.138;2023-08-24T06:32:34;100720.22;;;23.66;62.29
12182;BME280;6154;51.550;12.138;2023-08-24T06:35:05;100717.22;;;23.77;61.86
12182;BME280;6154;51.550;12.138;2023-08-24T06:37:34;100713.38;;;23.88;61.24
12182;BME280;6154;51.550;12.138;2023-08-24T06:40:02;100722.88;;;24.00;61.31
12182;BME280;6154;51.550;12.138;2023-08-24T06:42:32;100708.03;;;24.12;61.67
12182;BME280;6154;51.550;12.138;2023-08-24T06:45:00;100698.25;;;24.27;61.44
12182;BME280;6154;51.550;12.138;2023-08-24T06:47:30;100696.09;;;24.39;60.10
12182;BME280;6154;51.550;12.138;2023-08-24T06:49:58;100707.28;;;24.52;60.86
12182;BME280;6154;51.550;12.138;2023-08-24T06:52:29;100697.81;;;24.64;60.93
12182;BME280;6154;51.550;12.138;2023-08-24T06:54:57;100701.03;;;24.76;60.33
12182;BME280;6154;51.550;12.138;2023-08-24T06:57:25;100712.19;;;24.89;60.75
12182;BME280;6154;51.550;12.138;2023-08-24T06:59:54;100713.72;;;25.00;59.88
12182;BME280;6154;51.550;12.138;2023-08-24T07:02:22;100710.31;;;25.14;60.14
12182;BME280;6154;51.550;12.138;2023-08-24T07:04:51;100709.81;;;25.27;60.29
12182;BME280;6154;51.550;12.138;2023-08-24T07:07:20;100715.34;;;25.42;60.23
12182;BME280;6154;51.550;12.138;2023-08-24T07:09:47;100721.41;;;25.52;60.29
12182;BME280;6154;51.550;12.138;2023-08-24T07:12:16;100718.84;;;25.67;60.08
12182;BME280;6154;51.550;12.138;2023-08-24T07:14:44;100719.81;;;25.82;60.04
12182;BME280;6154;51.550;12.138;2023-08-24T07:17:12;100726.69;;;26.01;59.71
12182;BME280;6154;51.550;12.138;2023-08-24T07:19:40;100734.41;;;26.12;59.23
12182;BME280;6154;51.550;12.138;2023-08-24T07:22:09;100741.13;;;26.24;59.16
12182;BME280;6154;51.550;12.138;2023-08-24T07:24:38;100734.81;;;26.32;58.82
12182;BME280;6154;51.550;12.138;2023-08-24T07:27:11;100727.97;;;26.44;58.92
12182;BME280;6154;51.550;12.138;2023-08-24T07:29:39;100732.81;;;26.57;58.89
12182;BME280;6154;51.550;12.138;2023-08-24T07:32:08;100726.47;;;26.64;58.85
12182;BME280;6154;51.550;12.138;2023-08-24T07:34:36;100718.78;;;26.91;58.88
12182;BME280;6154;51.550;12.138;2023-08-24T07:37:04;100721.28;;;27.15;58.34
12182;BME280;6154;51.550;12.138;2023-08-24T07:39:34;100719.91;;;27.34;58.36
12182;BME280;6154;51.550;12.138;2023-08-24T07:42:03;100714.09;;;27.52;58.03
12182;BME280;6154;51.550;12.138;2023-08-24T07:44:31;100702.50;;;27.73;57.85
12182;BME280;6154;51.550;12.138;2023-08-24T07:46:59;100707.25;;;28.00;57.65
12182;BME280;6154;51.550;12.138;2023-08-24T07:49:27;100695.66;;;28.28;57.60
12182;BME280;6154;51.550;12.138;2023-08-24T07:51:55;100689.16;;;28.50;57.13
12182;BME280;6154;51.550;12.138;2023-08-24T07:54:24;100680.22;;;28.78;57.05
12182;BME280;6154;51.550;12.138;2023-08-24T07:56:53;100682.44;;;28.96;56.60
12182;BME280;6154;51.550;12.138;2023-08-24T07:59:22;100685.56;;;29.20;56.60
12182;BME280;6154;51.550;12.138;2023-08-24T08:01:52;100678.97;;;29.36;55.76
12182;BME280;6154;51.550;12.138;2023-08-24T08:04:20;100673.53;;;29.43;55.39
12182;BME280;6154;51.550;12.138;2023-08-24T08:06:48;100677.94;;;29.44;55.24
12182;BME280;6154;51.550;12.138;2023-08-24T08:09:16;100678.66;;;29.53;55.24
12182;BME280;6154;51.550;12.138;2023-08-24T08:11:45;100674.59;;;29.42;54.78
12182;BME280;6154;51.550;12.138;2023-08-24T08:14:14;100678.78;;;29.38;55.11
12182;BME280;6154;51.550;12.138;2023-08-24T08:16:42;100677.31;;;29.42;55.02
12182;BME280;6154;51.550;12.138;2023-08-24T08:19:11;100667.03;;;29.44;55.04
12182;BME280;6154;51.550;12.138;2023-08-24T08:21:39;100671.09;;;29.48;54.98
12182;BME280;6154;51.550;12.138;2023-08-24T08:24:07;100676.56;;;29.48;54.84
12182;BME280;6154;51.550;12.138;2023-08-24T08:26:35;100671.72;;;29.50;54.61
12182;BME280;6154;51.550;12.138;2023-08-24T08:29:03;100658.97;;;29.57;54.92
12182;BME280;6154;51.550;12.138;2023-08-24T08:31:33;100667.37;;;29.62;54.49
12182;BME280;6154;51.550;12.138;2023-08-24T08:34:02;100668.00;;;29.64;54.43
12182;BME280;6154;51.550;12.138;2023-08-24T08:36:31;100673.25;;;29.66;54.44
12182;BME280;6154;51.550;12.138;2023-08-24T08:39:00;100667.16;;;29.57;54.16
12182;BME280;6154;51.550;12.138;2023-08-24T08:41:33;100673.69;;;29.63;53.81
12182;BME280;6154;51.550;12.138;2023-08-24T08:44:06;100670.72;;;29.64;53.46
12182;BME280;6154;51.550;12.138;2023-08-24T08:46:36;100666.16;;;29.71;53.71
12182;BME280;6154;51.550;12.138;2023-08-24T08:49:06;100663.69;;;29.76;53.44
12182;BME280;6154;51.550;12.138;2023-08-24T08:51:36;100656.50;;;29.75;53.50
12182;BME280;6154;51.550;12.138;2023-08-24T08:54:05;100665.16;;;29.86;53.49
12182;BME280;6154;51.550;12.138;2023-08-24T08:56:33;100664.75;;;29.89;52.89
12182;BME280;6154;51.550;12.138;2023-08-24T08:59:03;100667.69;;;29.94;53.13
12182;BME280;6154;51.550;12.138;2023-08-24T09:01:37;100666.47;;;30.03;52.68
12182;BME280;6154;51.550;12.138;2023-08-24T09:04:06;100657.09;;;30.12;52.63
12182;BME280;6154;51.550;12.138;2023-08-24T09:06:34;100650.78;;;30.25;53.07
12182;BME280;6154;51.550;12.138;2023-08-24T09:09:04;100657.75;;;30.27;52.90
12182;BME280;6154;51.550;12.138;2023-08-24T09:11:33;100651.88;;;30.44;52.58
12182;BME280;6154;51.550;12.138;2023-08-24T09:14:01;100646.44;;;30.57;52.19
12182;BME280;6154;51.550;12.138;2023-08-24T09:16:32;100640.31;;;30.61;52.06
12182;BME280;6154;51.550;12.138;2023-08-24T09:19:04;100640.56;;;30.73;52.15
12182;BME280;6154;51.550;12.138;2023-08-24T09:21:36;100640.34;;;30.88;50.52
12182;BME280;6154;51.550;12.138;2023-08-24T09:24:06;100635.25;;;31.05;50.55
12182;BME280;6154;51.550;12.138;2023-08-24T09:26:36;100632.91;;;31.15;51.36
12182;BME280;6154;51.550;12.138;2023-08-24T09:29:13;100633.59;;;31.04;51.56
12182;BME280;6154;51.550;12.138;2023-08-24T09:31:42;100631.47;;;31.06;49.25
12182;BME280;6154;51.550;12.138;2023-08-24T09:34:12;100623.06;;;31.01;50.95
12182;BME280;6154;51.550;12.138;2023-08-24T09:36:41;100619.50;;;31.07;51.21
12182;BME280;6154;51.550;12.138;2023-08-24T09:39:12;100620.53;;;31.06;51.04
12182;BME280;6154;51.550;12.138;2023-08-24T09:41:49;100619.47;;;31.27;50.99
12182;BME280;6154;51.550;12.138;2023-08-24T09:44:18;100612.69;;;31.36;48.95
12182;BME280;6154;51.550;12.138;2023-08-24T09:46:46;100612.91;;;31.41;50.48
12182;BME280;6154;51.550;12.138;2023-08-24T09:49:15;100612.91;;;31.34;50.20
12182;BME280;6154;51.550;12.138;2023-08-24T09:51:44;100606.59;;;31.34;49.92
12182;BME280;6154;51.550;12.138;2023-08-24T09:54:15;100602.44;;;31.18;49.59
12182;BME280;6154;51.550;12.138;2023-08-24T09:56:45;100596.53;;;31.14;48.53
12182;BME280;6154;51.550;12.138;2023-08-24T09:59:17;100589.78;;;31.24;49.21
12182;BME280;6154;51.550;12.138;2023-08-24T10:01:47;100585.78;;;31.26;49.83
12182;BME280;6154;51.550;12.138;2023-08-24T10:04:21;100583.47;;;31.30;48.37
12182;BME280;6154;51.550;12.138;2023-08-24T10:06:52;100586.16;;;31.43;46.82
12182;BME280;6154;51.550;12.138;2023-08-24T10:09:29;100575.87;;;31.38;46.66
12182;BME280;6154;51.550;12.138;2023-08-24T10:12:02;100575.34;;;31.55;46.97
12182;BME280;6154;51.550;12.138;2023-08-24T10:14:38;100565.81;;;31.70;46.95
12182;BME280;6154;51.550;12.138;2023-08-24T10:17:09;100567.88;;;31.82;46.99
12182;BME280;6154;51.550;12.138;2023-08-24T10:19:43;100564.53;;;32.04;48.47
12182;BME280;6154;51.550;12.138;2023-08-24T10:22:12;100547.12;;;32.24;48.18
12182;BME280;6154;51.550;12.138;2023-08-24T10:24:42;100539.50;;;32.26;48.41
12182;BME280;6154;51.550;12.138;2023-08-24T10:27:11;100534.91;;;32.51;47.87
12182;BME280;6154;51.550;12.138;2023-08-24T10:29:40;100535.63;;;32.40;47.78
12182;BME280;6154;51.550;12.138;2023-08-24T10:32:08;100534.66;;;32.28;46.48
12182;BME280;6154;51.550;12.138;2023-08-24T10:34:37;100529.38;;;32.26;46.29
12182;BME280;6154;51.550;12.138;2023-08-24T10:37:10;100530.31;;;32.20;47.43
12182;BME280;6154;51.550;12.138;2023-08-24T10:39:44;100514.78;;;32.39;46.38
12182;BME280;6154;51.550;12.138;2023-08-24T10:42:13;100516.69;;;32.39;45.64
12182;BME280;6154;51.550;12.138;2023-08-24T10:44:45;100512.66;;;32.41;47.51
12182;BME280;6154;51.550;12.138;2023-08-24T10:47:14;100510.84;;;32.28;46.98
12182;BME280;6154;51.550;12.138;2023-08-24T10:49:44;100507.09;;;32.23;47.61
12182;BME280;6154;51.550;12.138;2023-08-24T10:52:21;100507.53;;;32.20;47.34
12182;BME280;6154;51.550;12.138;2023-08-24T10:54:51;100496.59;;;32.20;45.34
12182;BME280;6154;51.550;12.138;2023-08-24T10:57:21;100496.59;;;32.20;47.52
12182;BME280;6154;51.550;12.138;2023-08-24T11:00:05;100492.94;;;32.26;46.96
12182;BME280;6154;51.550;12.138;2023-08-24T11:02:42;100494.16;;;32.05;44.13
12182;BME280;6154;51.550;12.138;2023-08-24T11:05:19;100488.69;;;32.05;44.32
12182;BME280;6154;51.550;12.138;2023-08-24T11:07:54;100490.69;;;32.16;44.84
12182;BME280;6154;51.550;12.138;2023-08-24T11:10:24;100489.97;;;32.02;44.52
12182;BME280;6154;51.550;12.138;2023-08-24T11:13:10;100475.78;;;32.12;46.41
12182;BME280;6154;51.550;12.138;2023-08-24T11:15:40;100475.06;;;31.98;44.03
12182;BME280;6154;51.550;12.138;2023-08-24T11:18:21;100458.88;;;32.15;46.49
12182;BME280;6154;51.550;12.138;2023-08-24T11:20:51;100462.78;;;32.26;43.74
12182;BME280;6154;51.550;12.138;2023-08-24T11:23:24;100469.94;;;32.52;46.78
12182;BME280;6154;51.550;12.138;2023-08-24T11:25:54;100473.91;;;32.74;46.37
12182;BME280;6154;51.550;12.138;2023-08-24T11:28:26;100472.84;;;32.94;46.06
12182;BME280;6154;51.550;12.138;2023-08-24T11:30:55;100471.47;;;33.03;46.38
12182;BME280;6154;51.550;12.138;2023-08-24T11:33:27;100467.28;;;33.19;46.08
12182;BME280;6154;51.550;12.138;2023-08-24T11:35:57;100470.44;;;33.34;44.93
12182;BME280;6154;51.550;12.138;2023-08-24T11:38:35;100476.50;;;33.54;45.69
12182;BME280;6154;51.550;12.138;2023-08-24T11:41:12;100473.06;;;33.59;42.91
12182;BME280;6154;51.550;12.138;2023-08-24T11:43:42;100490.97;;;33.61;43.39
12182;BME280;6154;51.550;12.138;2023-08-24T11:46:10;100493.50;;;33.74;45.25
12182;BME280;6154;51.550;12.138;2023-08-24T11:48:39;100498.00;;;33.87;45.24
12182;BME280;6154;51.550;12.138;2023-08-24T11:51:08;100497.38;;;33.97;44.76
12182;BME280;6154;51.550;12.138;2023-08-24T11:53:39;100496.47;;;34.03;44.79
12182;BME280;6154;51.550;12.138;2023-08-24T11:56:08;100482.84;;;34.32;44.27
12182;BME280;6154;51.550;12.138;2023-08-24T11:58:38;100486.44;;;34.55;44.71
12182;BME280;6154;51.550;12.138;2023-08-24T12:01:06;100476.72;;;34.76;44.19
12182;BME280;6154;51.550;12.138;2023-08-24T12:03:36;100479.34;;;34.95;43.57
12182;BME280;6154;51.550;12.138;2023-08-24T12:06:10;100470.13;;;35.01;44.13
12182;BME280;6154;51.550;12.138;2023-08-24T12:08:41;100473.75;;;34.90;40.72
12182;BME280;6154;51.550;12.138;2023-08-24T12:11:13;100480.19;;;34.83;42.85
12182;BME280;6154;51.550;12.138;2023-08-24T12:13:46;100467.31;;;34.72;41.79
12182;BME280;6154;51.550;12.138;2023-08-24T12:16:15;100460.84;;;34.78;41.63
12182;BME280;6154;51.550;12.138;2023-08-24T12:18:49;100472.47;;;34.69;43.63
12182;BME280;6154;51.550;12.138;2023-08-24T12:21:17;100464.69;;;34.30;41.41
12182;BME280;6154;51.550;12.138;2023-08-24T12:23:59;100458.38;;;34.42;43.17
12182;BME280;6154;51.550;12.138;2023-08-24T12:26:28;100459.81;;;34.44;40.66
12182;BME280;6154;51.550;12.138;2023-08-24T12:29:00;100438.75;;;34.62;43.63
12182;BME280;6154;51.550;12.138;2023-08-24T12:31:29;100452.97;;;34.70;42.61
12182;BME280;6154;51.550;12.138;2023-08-24T12:34:02;100451.16;;;34.64;42.83
12182;BME280;6154;51.550;12.138;2023-08-24T12:36:31;100440.19;;;34.52;41.94
12182;BME280;6154;51.550;12.138;2023-08-24T12:39:04;100435.31;;;34.43;42.51
12182;BME280;6154;51.550;12.138;2023-08-24T12:41:33;100433.37;;;34.32;41.49
12182;BME280;6154;51.550;12.138;2023-08-24T12:44:01;100418.81;;;34.19;43.27
12182;BME280;6154;51.550;12.138;2023-08-24T12:46:32;100422.47;;;34.37;42.83
12182;BME280;6154;51.550;12.138;2023-08-24T12:49:01;100412.97;;;34.27;42.14
12182;BME280;6154;51.550;12.138;2023-08-24T12:51:29;100403.28;;;34.13;42.15
12182;BME280;6154;51.550;12.138;2023-08-24T12:53:57;100403.50;;;34.12;42.64
12182;BME280;6154;51.550;12.138;2023-08-24T12:56:27;100386.31;;;34.05;42.17
12182;BME280;6154;51.550;12.138;2023-08-24T12:58:55;100392.78;;;34.10;42.16
12182;BME280;6154;51.550;12.138;2023-08-24T13:01:23;100385.59;;;34.09;42.43
12182;BME280;6154;51.550;12.138;2023-08-24T13:03:52;100381.03;;;34.26;42.06